Reportages photos

Connexion

10Km

10 KM LA COULONNOISE du 12/11/17 (Reelle 10)
Rang Dossard Nom Prénom Temps Cat Rang Cat Ecart Ecart Cat Club Vitesse Km/h Temps au Km
1 227 DEQUIDT JULIEN 00:33:43 SEM 1 00:00:00 00:00:00 S/L AC AUDOMAROIS 17,795 03:22
2 457 HOLARD MAXIMILIEN 00:34:11 SEM 2 00:00:28 00:00:28 ENTENTE MARITIME ATHL. 17,552 03:25
3 477 LEMAIRE KEVIN 00:34:23 ESM 1 00:00:40 00:00:00 AS MARCK 17,450 03:26
4 450 BOULOGNE JEREMIE 00:34:53 V1M 1 00:01:10 00:00:00 RUNNING CONSEIL 17,200 03:29
5 441 SBARDELLA FRANCOIS 00:35:03 SEM 3 00:01:20 00:01:20 GRAVELINES TRIATHLON 17,118 03:30
6 257 HENQUEZ thierry 00:35:52 V1M 2 00:02:09 00:00:59 offekerque 16,729 03:35
7 118 IMMOUNI Abdel-Aziz 00:36:17 V1M 3 00:02:34 00:01:24 - 16,537 03:38
8 474 DUCHATEAU THOMAS 00:36:34 SEM 4 00:02:51 00:02:51 ALENON TRIATHLON 16,408 03:39
9 208 LIMOUSIN Stéphane 00:36:56 V1M 4 00:03:13 00:02:03 PATRIOTE CROSS DE GUINES 16,245 03:42
10 53 DOCQUOIS FREDERIC 00:37:36 V1M 5 00:03:53 00:02:43 LE DRAPEAU 15,957 03:46
11 487 FOURRIER VINCENT 00:37:49 SEM 5 00:04:06 00:04:06 - 15,866 03:47
12 94 PILLEREL Christophe 00:37:52 SEM 6 00:04:09 00:04:09 COURIR A GRAVELINES 15,845 03:47
13 454 PRUDHOMME GEORGES 00:38:24 V2M 1 00:04:41 00:00:00 COURIR DANS LE LUMBROIS 15,625 03:50
14 214 ZULMEA Devy 00:38:35 V1M 6 00:04:52 00:03:42 PATRIOTE CROSS DE GUINES 15,551 03:52
15 22 DEFOSSE Remy 00:38:41 JUM 1 00:04:58 00:00:00 BLANC NEZ TRIATHLON 15,511 03:52
16 241 GOURNAY Mathieu 00:38:57 SEM 7 00:05:14 00:05:14 - 15,404 03:54
17 256 COUSIN anthony 00:38:57 SEM 8 00:05:14 00:05:14 - 15,404 03:54
18 233 LEFRANC sebastien 00:39:07 SEM 9 00:05:24 00:05:24 - 15,339 03:55
19 465 DELARACE MARC 00:39:09 SEM 10 00:05:26 00:05:26 - 15,326 03:55
20 210 JOSEPH Joël 00:39:14 V2M 2 00:05:31 00:00:50 PATRIOTE CROSS DE GUINES 15,293 03:55
21 216 FOURNIER Jérôme 00:39:14 V1M 7 00:05:31 00:04:21 PATRIOTE CROSS DE GUINES 15,293 03:55
22 215 CARBONNIER Michel 00:39:14 V1M 8 00:05:31 00:04:21 PATRIOTE CROSS DE GUINES 15,293 03:55
23 177 SAUVAGE Frédéric 00:39:29 V1M 9 00:05:46 00:04:36 LE DRAPEAU 15,196 03:57
24 213 DUCLOY EDDY 00:39:34 V1M 10 00:05:51 00:04:41 PATRIOTE CROSS DE GUINES 15,164 03:57
25 175 TALEUX Jean-Baptiste 00:39:36 SEM 11 00:05:53 00:05:53 - 15,152 03:58
26 473 PECQUET FRANCK 00:39:42 V2M 3 00:05:59 00:01:18 BOULOGNE ATHLETIQUE CLUB 15,113 03:58
27 455 RENAUX FREDERIC 00:39:47 V1M 11 00:06:04 00:04:54 GRAVELINES TRIATHLON 15,082 03:59
28 275 MARCOTTE Hugo 00:39:51 JUM 2 00:06:08 00:01:10 - 15,056 03:59
29 286 COUPIN FRANCK 00:40:00 SEM 12 00:06:17 00:06:17 - 15,000 04:00
30 259 PLANQUE Florent 00:40:03 SEM 13 00:06:20 00:06:20 - 14,981 04:00
31 444 CHOCHOIS GREGORY 00:40:11 SEM 14 00:06:28 00:06:28 - 14,932 04:01
32 461 DENEZ FRANCOIS 00:40:18 V1M 12 00:06:35 00:05:25 ac coquelles 14,888 04:02
33 82 BARRAS julien 00:40:20 SEM 15 00:06:37 00:06:37 AS MARCK 14,876 04:02
34 201 FLAHAUT Daniel 00:40:20 V1M 13 00:06:37 00:05:27 PATRIOTE CROSS DE GUINES 14,876 04:02
35 453 CABOCHE CHRISTOPHE 00:40:22 V1M 14 00:06:39 00:05:29 AS MARCK 14,864 04:02
36 60 RINGOT Mickael 00:40:24 SEM 16 00:06:41 00:06:41 SO CALAIS 14,851 04:02
37 83 BOURRÉ Julien 00:40:38 SEM 17 00:06:55 00:06:55 AC OUTREAU 14,766 04:04
38 258 LAPOTRE Médéric 00:40:41 SEM 18 00:06:58 00:06:58 - 14,748 04:04
39 451 HERMEL THIERRY 00:40:58 V1M 15 00:07:15 00:06:05 marck' athlon 14,646 04:06
40 199 ALLAN Sébastien 00:41:07 V1M 16 00:07:24 00:06:14 PATRIOTE CROSS DE GUINES 14,593 04:07
41 242 COURQUIN Anthony 00:41:19 SEM 19 00:07:36 00:07:36 - 14,522 04:08
42 271 BROSSET Franck 00:41:29 V2M 4 00:07:46 00:03:05 - 14,464 04:09
43 134 VANDERSTRAETEN Karine 00:41:30 V1F 1 00:07:47 00:00:00 COURIR A GRAVELINES 14,458 04:09
44 293 MIQUEL DAVID 00:41:32 V2M 5 00:07:49 00:03:08 marck' athlon 14,446 04:09
45 268 DUHAMEL Grégoire 00:41:37 SEM 20 00:07:54 00:07:54 BOULOGNE SUR MER AC 14,417 04:10
46 449 STOPIN THEO 00:41:38 ESM 2 00:07:55 00:07:15 - 14,412 04:10
47 168 CATEZ Damien 00:41:39 V1M 17 00:07:56 00:06:46 - 14,406 04:10
48 151 TETARD christophe 00:41:45 V2M 6 00:08:02 00:03:21 AC CAPELLOIS 14,371 04:11
49 288 HOTAK WAIS 00:41:48 CAM 1 00:08:05 00:00:00 - 14,354 04:11
50 139 LANNOY eric 00:41:52 V2M 7 00:08:09 00:03:28 - 14,331 04:11
51 112 BOURGAIN guillaume 00:41:52 V1M 18 00:08:09 00:06:59 - 14,331 04:11
52 479 JOBART ALEXIS 00:41:59 SEM 21 00:08:16 00:08:16 - 14,291 04:12
53 243 LEGAL Yohann 00:42:06 V1M 19 00:08:23 00:07:13 - 14,252 04:13
54 277 DAUX Nicolas 00:42:08 SEM 22 00:08:25 00:08:25 - 14,241 04:13
55 114 BERDIN Valérie 00:42:10 V1F 2 00:08:27 00:00:40 AS MARCK 14,229 04:13
56 265 MOUSSAY Laurent 00:42:12 V2M 8 00:08:29 00:03:48 - 14,218 04:13
57 497 AXELLE ANTOINE 00:42:16 SEM 23 00:08:33 00:08:33 - 14,196 04:14
58 170 LENSEN eric 00:42:20 V1M 20 00:08:37 00:07:27 - 14,173 04:14
59 278 DEGRAVE Jean-Philippe 00:42:20 SEM 24 00:08:37 00:08:37 - 14,173 04:14
60 203 ROUTIER Maud 00:42:21 SEF 1 00:08:38 00:00:00 PATRIOTE CROSS DE GUINES 14,168 04:14
61 198 BOCQUET Patrick 00:42:22 V3M 1 00:08:39 00:00:00 PATRIOTE CROSS DE GUINES 14,162 04:14
62 189 VASSEUR Renaud 00:42:23 SEM 25 00:08:40 00:08:40 - 14,157 04:14
63 263 ALVES DOS SANTOS Romuald 00:42:48 V1M 21 00:09:05 00:07:55 - 14,019 04:17
64 192 MERLIN Matthieu 00:42:50 SEM 26 00:09:07 00:09:07 - 14,008 04:17
65 88 DEGUINES Mathieu 00:42:52 SEM 27 00:09:09 00:09:09 - 13,997 04:17
66 225 CADET Jean-philipe 00:42:54 V1M 22 00:09:11 00:08:01 AS MARCK 13,986 04:17
67 119 WUYTS Alexandre 00:42:58 SEM 28 00:09:15 00:09:15 - 13,964 04:18
68 62 CHIROUTTE Olivier 00:43:10 V1M 23 00:09:27 00:08:17 - 13,900 04:19
69 282 LEFEBVRE GREGORY 00:43:11 V1M 24 00:09:28 00:08:18 - 13,894 04:19
70 237 BODEL nicolas 00:43:12 V1M 25 00:09:29 00:08:19 - 13,889 04:19
71 222 DELETOILLE JULIEN 00:43:13 SEM 29 00:09:30 00:09:30 AC CAPELLOIS 13,884 04:19
72 76 THERY Jean-Yves 00:43:13 V1M 26 00:09:30 00:08:20 Marcassins 13,884 04:19
73 123 WUYTS Maxime 00:43:24 SEM 30 00:09:41 00:09:41 - 13,825 04:20
74 183 MASCOT David 00:43:25 V1M 27 00:09:42 00:08:32 AS MARCK 13,820 04:20
75 489 LECOUSTRE SEBASTIEN 00:43:29 SEM 31 00:09:46 00:09:46 - 13,798 04:21
76 262 ROBACHE julien 00:43:29 SEM 32 00:09:46 00:09:46 - 13,798 04:21
77 250 DUQUENE david 00:43:30 V1M 28 00:09:47 00:08:37 JOG GAZELEC 13,793 04:21
78 69 LABOURE ROMAIN 00:43:32 SEM 33 00:09:49 00:09:49 LES AMIS CYCLOS DE L'ARDRESIS 13,783 04:21
79 452 LEGROS MATHIEU 00:43:35 SEM 34 00:09:52 00:09:52 AS MARCK 13,767 04:22
80 165 DETRES Frédéric 00:43:36 V1M 29 00:09:53 00:08:43 AS MARCK 13,761 04:22
81 285 CRESSON KAMEL 00:43:37 V1M 30 00:09:54 00:08:44 - 13,756 04:22
82 13 LEFEBVRE Ludovic 00:43:41 V2M 9 00:09:58 00:05:17 AS MARCK 13,735 04:22
83 137 TREMBLAY Philippe 00:43:41 V2M 10 00:09:58 00:05:17 - 13,735 04:22
84 81 DEWEZ Julien 00:43:51 SEM 35 00:10:08 00:10:08 - 13,683 04:23
85 144 BRIGE Matthieu 00:43:55 V1M 31 00:10:12 00:09:02 - 13,662 04:24
86 186 SERGEANT Clément 00:44:00 SEM 36 00:10:17 00:10:17 - 13,636 04:24
87 447 DOYER ERIC 00:44:00 V1M 32 00:10:17 00:09:07 AS MARCK 13,636 04:24
88 164 RINGUET Frédéric 00:44:02 V2M 11 00:10:19 00:05:38 - 13,626 04:24
89 482 CARON MATHIEU 00:44:03 SEM 37 00:10:20 00:10:20 - 13,621 04:24
90 41 DUVILLARD Damien 00:44:04 SEM 38 00:10:21 00:10:21 AC CAPELLOIS 13,616 04:24
91 166 LAMIRAND Geoffroy 00:44:10 SEM 39 00:10:27 00:10:27 - 13,585 04:25
92 299 LEFEBVRE CYRIL 00:44:10 SEM 40 00:10:27 00:10:27 - 13,585 04:25
93 179 DEVIGNE Benoit 00:44:10 SEM 41 00:10:27 00:10:27 - 13,585 04:25
94 124 IBDELLA Mohamed 00:44:11 V1M 33 00:10:28 00:09:18 - 13,580 04:25
95 483 WILLO Julien 00:44:33 SEM 42 00:10:50 00:10:50 - 13,468 04:27
96 19 PIOT BENJAMIN 00:44:37 SEM 43 00:10:54 00:10:54 - 13,448 04:28
97 273 POTEZ Yannick 00:44:39 SEM 44 00:10:56 00:10:56 - 13,438 04:28
98 90 PERSYN Cyril 00:44:40 SEM 45 00:10:57 00:10:57 - 13,433 04:28
99 486 GUYO LUDOVIC 00:44:41 V1M 34 00:10:58 00:09:48 - 13,428 04:28
100 167 RAULT François 00:44:47 V3M 2 00:11:04 00:02:25 SO CALAIS 13,398 04:29
101 467 CLIPET GAETAN 00:44:50 SEM 46 00:11:07 00:11:07 - 13,383 04:29
102 178 DAGBERT JOEL 00:44:55 V2M 12 00:11:12 00:06:31 - 13,358 04:30
103 163 DUQUENOY David 00:44:56 V1M 35 00:11:13 00:10:03 JOGGING CLUB LICQUOIS 13,353 04:30
104 264 VIVIEZ Vincent 00:45:08 SEM 47 00:11:25 00:11:25 BLANC NEZ TRIATHLON 13,294 04:31
105 485 LEVITRE PACO 00:45:10 ESM 3 00:11:27 00:10:47 - 13,284 04:31
106 172 DELEPIERRE sylvain 00:45:12 V1M 36 00:11:29 00:10:19 JOGGING CLUB LICQUOIS 13,274 04:31
107 194 DELRUE Romain 00:45:17 SEM 48 00:11:34 00:11:34 - 13,250 04:32
108 132 CUGNY Vincent 00:45:17 SEM 49 00:11:34 00:11:34 - 13,250 04:32
109 466 DOUBLECOURT SULLIVAN 00:45:21 SEM 50 00:11:38 00:11:38 - 13,230 04:32
110 10 HALLARD Jean-François 00:45:22 SEM 51 00:11:39 00:11:39 - 13,226 04:32
111 30 PALFART Jérôme 00:45:26 V1M 37 00:11:43 00:10:33 - 13,206 04:33
112 197 PIERRU Sigrid 00:45:45 V1F 3 00:12:02 00:04:15 PATRIOTE CROSS DE GUINES 13,115 04:34
113 212 VERDIERE Sylvain 00:45:45 SEM 52 00:12:02 00:12:02 PATRIOTE CROSS DE GUINES 13,115 04:34
114 23 DEFOSSE Ludovic 00:45:51 V1M 38 00:12:08 00:10:58 - 13,086 04:35
115 4 MARTEL Samuel 00:45:53 V1M 39 00:12:10 00:11:00 - 13,077 04:35
116 204 CRETEUR Olivier 00:45:55 SEM 53 00:12:12 00:12:12 PATRIOTE CROSS DE GUINES 13,067 04:36
117 291 PLATIAU MARIE 00:45:56 SEF 2 00:12:13 00:03:35 - 13,062 04:36
118 492 GOE??? A??? 00:45:59 SEM 54 00:12:16 00:12:16 - 13,048 04:36
119 92 RETAUX Claudy 00:46:00 V1M 40 00:12:17 00:11:07 - 13,043 04:36
120 211 MOLLER Vincent 00:46:02 SEM 55 00:12:19 00:12:19 PATRIOTE CROSS DE GUINES 13,034 04:36
121 448 PIGERRE SYLVAIN 00:46:03 SEM 56 00:12:20 00:12:20 - 13,029 04:36
122 283 CROQUELOIS NICOLAS 00:46:10 V1M 41 00:12:27 00:11:17 - 12,996 04:37
123 209 BIRO Soren 00:46:17 SEM 57 00:12:34 00:12:34 PATRIOTE CROSS DE GUINES 12,964 04:38
124 28 PREVOST Mathieu 00:46:19 SEM 58 00:12:36 00:12:36 - 12,954 04:38
125 274 MICELLI Grégoire 00:46:24 SEM 59 00:12:41 00:12:41 - 12,931 04:38
126 443 AUZOU JEAN-PAUL 00:46:33 V2M 13 00:12:50 00:08:09 LE DRAPEAU 12,889 04:39
127 244 PERSYN Cyprien 00:46:36 JUM 3 00:12:53 00:07:55 - 12,876 04:40
128 459 BOVIN BERNARD 00:46:39 V1M 42 00:12:56 00:11:46 - 12,862 04:40
129 439 LEGGHE GILLES 00:46:39 V1M 43 00:12:56 00:11:46 - 12,862 04:40
130 440 LECRAS YAEL 00:46:40 V1M 44 00:12:57 00:11:47 - 12,857 04:40
131 261 SMAGGHE quentin 00:46:42 SEM 60 00:12:59 00:12:59 - 12,848 04:40
132 42 REBIAI séverine 00:46:46 V1F 4 00:13:03 00:05:16 BLANC NEZ TRIATHLON 12,830 04:41
133 176 FLAHAUT Frédéric 00:46:48 V1M 45 00:13:05 00:11:55 - 12,821 04:41
134 174 LEVITRE Franck 00:46:51 V2M 14 00:13:08 00:08:27 - 12,807 04:41
135 253 LÉOTY Audrey 00:46:55 SEF 3 00:13:12 00:04:34 AS MARCK 12,789 04:41
136 87 MICHAUX Romain 00:46:57 SEM 61 00:13:14 00:13:14 - 12,780 04:42
137 91 DUBOIS Richard 00:46:57 V1M 46 00:13:14 00:12:04 - 12,780 04:42
138 260 DUBAIL Florentin 00:47:00 SEM 62 00:13:17 00:13:17 - 12,766 04:42
139 446 STOPIN BRUNO 00:47:00 V2M 15 00:13:17 00:08:36 - 12,766 04:42
140 200 SAMELOT Vincent 00:47:01 SEM 63 00:13:18 00:13:18 PATRIOTE CROSS DE GUINES 12,761 04:42
141 106 LOQUET Ludovic 00:47:01 V2M 16 00:13:18 00:08:37 - 12,761 04:42
142 148 STROBBE Jonathan 00:47:02 SEM 64 00:13:19 00:13:19 - 12,757 04:42
143 292 PORCHET BRUNO 00:47:03 V3M 3 00:13:20 00:04:41 - 12,752 04:42
144 26 VANDENBROUCKE Nicolas 00:47:11 SEM 65 00:13:28 00:13:28 - 12,716 04:43
145 252 ETCHEPARE JEAN PHILIPPE 00:47:15 SEM 66 00:13:32 00:13:32 SO CALAIS 12,698 04:44
146 113 LAPOTRE arthur 00:47:16 ESM 4 00:13:33 00:12:53 - 12,694 04:44
147 136 TREMBLAY Beatrice 00:47:24 V1F 5 00:13:41 00:05:54 - 12,658 04:44
148 47 FRANCO LAURENT 00:47:27 V2M 17 00:13:44 00:09:03 - 12,645 04:45
149 300 PATEY GILLES 00:47:30 V1M 47 00:13:47 00:12:37 - 12,632 04:45
150 296 NAJMI AICHA 00:47:31 V1F 6 00:13:48 00:06:01 LE DRAPEAU 12,627 04:45
151 295 CHOUROT LUCIEN 00:47:31 V3M 4 00:13:48 00:05:09 LE DRAPEAU 12,627 04:45
152 445 LEMAITRE STEPHANE 00:47:39 V1M 48 00:13:56 00:12:46 - 12,592 04:46
153 238 BRIEZ CHRISTOPHE 00:47:45 V1M 49 00:14:02 00:12:52 - 12,565 04:46
154 105 FENET walter 00:47:47 V1M 50 00:14:04 00:12:54 - 12,557 04:47
155 442 MOITY FRANCK 00:47:49 V2M 18 00:14:06 00:09:25 - 12,548 04:47
156 195 JOLY David 00:47:51 V1M 51 00:14:08 00:12:58 PATRIOTE CROSS DE GUINES 12,539 04:47
157 234 BAUDE Valéry 00:48:02 V1M 52 00:14:19 00:13:09 - 12,491 04:48
158 34 LENGLET Sébastien 00:48:10 V1M 53 00:14:27 00:13:17 - 12,457 04:49
159 138 LEROY Bruno 00:48:15 V2M 19 00:14:32 00:09:51 - 12,435 04:50
160 18 FONTAINE REGIS 00:48:42 V2M 20 00:14:59 00:10:18 LES GAZELLES 12,320 04:52
161 24 MINET olivier 00:48:46 V2M 21 00:15:03 00:10:22 - 12,303 04:53
162 280 THOMAS Geoffrey 00:48:48 SEM 67 00:15:05 00:15:05 - 12,295 04:53
163 196 DENEZ Christelle 00:48:55 V2F 1 00:15:12 00:00:00 PATRIOTE CROSS DE GUINES 12,266 04:54
164 97 MAEGHT fabrice 00:48:59 V1M 54 00:15:16 00:14:06 - 12,249 04:54
165 67 PREVOST Victor 00:49:02 V3M 5 00:15:19 00:06:40 - 12,237 04:54
166 86 BACQUET José 00:49:03 SEM 68 00:15:20 00:15:20 - 12,232 04:54
167 219 LECOUFFE Amandine 00:49:03 SEF 4 00:15:20 00:06:42 PATRIOTE CROSS DE GUINES 12,232 04:54
168 284 DELCLOY HERVE 00:49:04 V3M 6 00:15:21 00:06:42 - 12,228 04:54
169 156 BONNIER Franck 00:49:06 V1M 55 00:15:23 00:14:13 DelPSP Team 12,220 04:55
170 294 CRETON RAPAHEL 00:49:07 V1M 56 00:15:24 00:14:14 AS MARCK 12,216 04:55
171 50 GAUTHIER eric 00:49:10 V2M 22 00:15:27 00:10:46 - 12,203 04:55
172 101 COOLS David 00:49:11 V1M 57 00:15:28 00:14:18 - 12,199 04:55
173 142 MASSON Lilian 00:49:13 V1M 58 00:15:30 00:14:20 DIR NORD 12,191 04:55
174 126 SANIEZ Fabien 00:49:26 SEM 69 00:15:43 00:15:43 - 12,138 04:57
175 51 DELACRE Sylvain 00:49:31 V1M 59 00:15:48 00:14:38 - 12,117 04:57
176 65 TOURON Stephen 00:49:37 V1M 60 00:15:54 00:14:44 - 12,093 04:58
177 11 LEMATTRE ERIC 00:49:42 V1M 61 00:15:59 00:14:49 - 12,072 04:58
178 74 LEMAIRE Emmanuel 00:49:42 V1M 62 00:15:59 00:14:49 - 12,072 04:58
179 249 LEUREGANS VINCENT 00:49:44 SEM 70 00:16:01 00:16:01 - 12,064 04:58
180 68 MAURETTE Maxime 00:49:46 SEM 71 00:16:03 00:16:03 - 12,056 04:59
181 77 LAVOGIEZ Mathieu 00:49:46 V1M 63 00:16:03 00:14:53 - 12,056 04:59
182 117 FRISCOURT Pascal 00:49:51 V1M 64 00:16:08 00:14:58 - 12,036 04:59
183 187 TILLOY EMMA 00:49:52 SEF 5 00:16:09 00:07:31 SO CALAIS 12,032 04:59
184 6 HAGNERE Guillaume 00:49:59 V1M 65 00:16:16 00:15:06 - 12,004 05:00
185 9 FINOT Olivier 00:50:01 V2M 23 00:16:18 00:11:37 - 11,996 05:00
186 255 CONDETTE Frédéric 00:50:03 V1M 66 00:16:20 00:15:10 - 11,988 05:00
187 135 MERLOT matthieu 00:50:11 SEM 72 00:16:28 00:16:28 - 11,956 05:01
188 220 PARISSEAUX Mathieu 00:50:12 SEM 73 00:16:29 00:16:29 - 11,952 05:01
189 159 SOLIMAN Ahmed 00:50:12 JUM 4 00:16:29 00:11:31 - 11,952 05:01
190 202 CARBONNIER Sébastien 00:50:29 V1M 67 00:16:46 00:15:36 PATRIOTE CROSS DE GUINES 11,885 05:03
191 152 TETARD Isabelle 00:50:31 V2F 2 00:16:48 00:01:36 AC CAPELLOIS 11,877 05:03
192 470 MESMACQUE JORDAN 00:50:31 SEM 74 00:16:48 00:16:48 - 11,877 05:03
193 162 LESENNE Christophe 00:50:35 SEM 75 00:16:52 00:16:52 - 11,862 05:03
194 12 MARTIN Yannick 00:50:35 SEM 76 00:16:52 00:16:52 BLANC NEZ TRIATHLON 11,862 05:03
195 184 PIERRET Gregory 00:50:45 V1M 68 00:17:02 00:15:52 - 11,823 05:05
196 73 LEBLANC lydie 00:50:45 V2F 3 00:17:02 00:01:50 AS MARCK 11,823 05:05
197 270 CASTAGNINI Angelino 00:50:49 V1M 69 00:17:06 00:15:56 - 11,807 05:05
198 110 LOGEZ Alexandre 00:51:01 SEM 77 00:17:18 00:17:18 - 11,761 05:06
199 32 BILLIET Nicolas 00:51:13 V1M 70 00:17:30 00:16:20 - 11,715 05:07
200 20 FAUCOEUR guillaume 00:51:30 V1M 71 00:17:47 00:16:37 - 11,650 05:09
201 478 LEVIEVILLE FREDERIC 00:51:31 SEM 78 00:17:48 00:17:48 - 11,647 05:09
202 129 HENON Aurélien 00:51:31 SEM 79 00:17:48 00:17:48 - 11,647 05:09
203 115 LEROUX JEAN 00:51:42 V3M 7 00:17:59 00:09:20 - 11,605 05:10
204 146 BACQUET Stephanie 00:51:43 V1F 7 00:18:00 00:10:13 - 11,602 05:10
205 15 MESSIANT dominique 00:51:47 V3M 8 00:18:04 00:09:25 - 11,587 05:11
206 141 PICHARD franck 00:51:48 V1M 72 00:18:05 00:16:55 - 11,583 05:11
207 190 DELBEC Gérard 00:51:49 V2M 24 00:18:06 00:13:25 - 11,579 05:11
208 96 LAVIEVILLE XAVIER 00:51:50 V1M 73 00:18:07 00:16:57 - 11,576 05:11
209 78 PRZYBYSZ THOMAS 00:51:50 SEM 80 00:18:07 00:18:07 - 11,576 05:11
210 61 PREL NICOLAS 00:51:51 SEM 81 00:18:08 00:18:08 - 11,572 05:11
211 481 CUGNY CELIMENE 00:51:56 SEF 6 00:18:13 00:09:35 - 11,553 05:12
212 147 ROBART Francois 00:51:59 V2M 25 00:18:16 00:13:35 - 11,542 05:12
213 207 DEBOURBIAUX Hélène 00:52:01 SEF 7 00:18:18 00:09:40 PATRIOTE CROSS DE GUINES 11,535 05:12
214 206 DUHAMEL Nicolas 00:52:02 SEM 82 00:18:19 00:18:19 PATRIOTE CROSS DE GUINES 11,531 05:12
215 490 AERNOUT FABIEN 00:52:03 SEM 83 00:18:20 00:18:20 - 11,527 05:12
216 93 MEURY Katy 00:52:04 SEF 8 00:18:21 00:09:43 - 11,524 05:12
217 185 DI CESARE MARC 00:52:12 V2M 26 00:18:29 00:13:48 - 11,494 05:13
218 217 CATOIRE Gilles 00:52:16 V2M 27 00:18:33 00:13:52 PATRIOTE CROSS DE GUINES 11,480 05:14
219 218 COQUERELLE Olivia 00:52:18 V1F 8 00:18:35 00:10:48 PATRIOTE CROSS DE GUINES 11,472 05:14
220 122 PEREZ Marie-Hélène 00:52:28 V1F 9 00:18:45 00:10:58 SO CALAIS 11,436 05:15
221 21 DEFOSSE Stephanie 00:52:34 V1F 10 00:18:51 00:11:04 BLANC NEZ TRIATHLON 11,414 05:15
222 25 SOROKA samuel 00:52:34 V3M 9 00:18:51 00:10:12 - 11,414 05:15
223 254 FAUQUETTE Samuel 00:52:40 SEM 84 00:18:57 00:18:57 - 11,392 05:16
224 248 DURIEZ Damien 00:52:41 V1M 74 00:18:58 00:17:48 - 11,389 05:16
225 116 CONRATTE MARINE 00:52:41 SEF 9 00:18:58 00:10:20 - 11,389 05:16
226 298 DROLLET HERVE 00:52:44 V2M 28 00:19:01 00:14:20 - 11,378 05:16
227 223 TASSART Jean Christophe 00:52:45 V2M 29 00:19:02 00:14:21 - 11,374 05:17
228 468 MALLET VINCENT 00:52:45 V1M 75 00:19:02 00:17:52 - 11,374 05:17
229 462 THIERY ALEXIS 00:52:46 SEM 85 00:19:03 00:19:03 - 11,371 05:17
230 463 GORAIN CAMILLE 00:52:47 SEF 10 00:19:04 00:10:26 AS MARCK 11,367 05:17
231 133 VERCOUTRE Vincent 00:52:48 SEM 86 00:19:05 00:19:05 - 11,364 05:17
232 230 BUTEZ Joséphine 00:52:51 SEF 11 00:19:08 00:10:30 - 11,353 05:17
233 269 DAUX Fabien 00:52:51 V1M 76 00:19:08 00:17:58 - 11,353 05:17
234 246 BRUGIDOU François 00:52:52 SEM 87 00:19:09 00:19:09 - 11,349 05:17
235 472 LEGRIX GAEL 00:53:00 SEM 88 00:19:17 00:19:17 - 11,321 05:18
236 58 DUPUIS Anne Laure 00:53:03 V1F 11 00:19:20 00:11:33 - 11,310 05:18
237 484 LEFEBVRE ERIC 00:53:05 V1M 77 00:19:22 00:18:12 - 11,303 05:18
238 480 GREUGZ MATTHIEU 00:53:08 SEM 89 00:19:25 00:19:25 - 11,292 05:19
239 59 SOW GAICIRY 00:53:11 SEF 12 00:19:28 00:10:50 - 11,282 05:19
240 173 DELEPIERRE estelle 00:53:25 SEF 13 00:19:42 00:11:04 JOGGING CLUB LICQUOIS 11,232 05:21
241 157 STROBBE Virginie 00:53:25 SEF 14 00:19:42 00:11:04 DelPSP Team 11,232 05:21
242 251 RINGOT jean marie 00:53:45 V3M 10 00:20:02 00:11:23 - 11,163 05:22
243 75 DUHAMEL Cécilia 00:53:47 V1F 12 00:20:04 00:12:17 - 11,156 05:23
244 499 BODART MARIE 00:53:48 V1F 13 00:20:05 00:12:18 - 11,152 05:23
245 89 COGNIAUX ELODIE 00:53:55 SEF 15 00:20:12 00:11:34 - 11,128 05:24
246 464 DELANNEL FABRICE 00:53:59 V1M 78 00:20:16 00:19:06 - 11,115 05:24
247 98 BERDIN Cedric 00:54:02 V1M 79 00:20:19 00:19:09 - 11,104 05:24
248 188 DUCLOIE Gregory 00:54:02 V1M 80 00:20:19 00:19:09 - 11,104 05:24
249 240 GUILBERT Marie 00:54:03 SEF 16 00:20:20 00:11:42 - 11,101 05:24
250 235 CAMBOULIVES Chloé 00:54:04 SEF 17 00:20:21 00:11:43 - 11,097 05:24
251 79 PEENAERT Denis 00:54:09 V1M 81 00:20:26 00:19:16 - 11,080 05:25
252 471 COUVELARD FREDERIQUE 00:54:17 V2F 4 00:20:34 00:05:22 - 11,053 05:26
253 66 DERAM Tony 00:54:17 V1M 82 00:20:34 00:19:24 - 11,053 05:26
254 496 HEMERY JEAN-CHRISTOPHE 00:54:18 V2M 30 00:20:35 00:15:54 - 11,050 05:26
255 149 MARTINE Hubert 00:54:19 V1M 83 00:20:36 00:19:26 - 11,046 05:26
256 169 CADET Julien 00:54:29 SEM 90 00:20:46 00:20:46 - 11,013 05:27
257 150 MORIEUX Emilie 00:54:38 SEF 18 00:20:55 00:12:17 - 10,982 05:28
258 46 HOUVENAGHEL PHILIPPE 00:54:44 V2M 31 00:21:01 00:16:20 - 10,962 05:28
259 56 VIGNERON Emilie 00:54:55 SEF 19 00:21:12 00:12:34 - 10,926 05:30
260 103 BAYARD Vincent 00:54:57 V1M 84 00:21:14 00:20:04 - 10,919 05:30
261 121 PEREZ Romane 00:55:12 ESF 1 00:21:29 00:00:00 - 10,870 05:31
262 120 PEREZ Rafael 00:55:12 V3M 11 00:21:29 00:12:50 - 10,870 05:31
263 64 GOUDAL Isabelle 00:55:15 V1F 14 00:21:32 00:13:45 - 10,860 05:32
264 498 PERSYN STEPHANE 00:55:17 V2M 32 00:21:34 00:16:53 - 10,853 05:32
265 14 MESSIANT Françoise 00:55:25 V3F 1 00:21:42 00:00:00 - 10,827 05:32
266 494 GRAIN FRANCOIS 00:55:31 SEM 91 00:21:48 00:21:48 - 10,808 05:33
267 193 CATTEZ Jean-Daniel 00:55:47 SEM 92 00:22:04 00:22:04 - 10,756 05:35
268 205 JOSSIEN Julie 00:56:00 SEF 20 00:22:17 00:13:39 PATRIOTE CROSS DE GUINES 10,714 05:36
269 247 FAUQUETTE Laurène 00:56:00 SEF 21 00:22:17 00:13:39 - 10,714 05:36
270 44 DUCLOIE Christian 00:56:20 V2M 33 00:22:37 00:17:56 - 10,651 05:38
271 130 RYCKEWAERT Fabrice 00:56:21 V2M 34 00:22:38 00:17:57 - 10,648 05:38
272 491 CALMANT BEVERLEY 00:56:45 V1F 15 00:23:02 00:15:15 - 10,573 05:41
273 182 GUERLAIN Perrine 00:56:46 SEF 22 00:23:03 00:14:25 - 10,570 05:41
274 8 NOREL ALEXIS 00:57:10 SEM 93 00:23:27 00:23:27 Runners en Nord 10,496 05:43
275 287 KANDZA PATRICE 00:57:14 V2M 35 00:23:31 00:18:50 - 10,483 05:43
276 456 BLANPAIN FABRICE 00:57:14 V1M 85 00:23:31 00:22:21 GRAVELINES TRIATHLON 10,483 05:43
277 125 FERAND Christophe 00:57:15 V1M 86 00:23:32 00:22:22 - 10,480 05:43
278 84 SCHAWLB claire 00:57:17 SEF 23 00:23:34 00:14:56 - 10,474 05:44
279 488 QUENEZ VIRGINIE 00:57:29 SEF 24 00:23:46 00:15:08 - 10,438 05:45
280 40 LAUBY Teddy 00:57:29 V1M 87 00:23:46 00:22:36 - 10,438 05:45
281 43 DUCLOIE Sabine 00:57:42 V2F 5 00:23:59 00:08:47 - 10,399 05:46
282 224 GUCHE rachel 00:57:52 V1F 16 00:24:09 00:16:22 atscaf 10,369 05:47
283 281 KIRN Eléonore 00:58:00 SEF 25 00:24:17 00:15:39 - 10,345 05:48
284 493 LENGLET MARIE 00:58:06 SEF 26 00:24:23 00:15:45 - 10,327 05:49
285 155 DELCROIX Nathalie 00:58:16 V1F 17 00:24:33 00:16:46 DelPSP Team 10,297 05:50
286 469 FELLON GUILLAUME 00:58:21 SEM 94 00:24:38 00:24:38 - 10,283 05:50
287 35 HALTER DUROCHER Farah 00:58:22 V1F 18 00:24:39 00:16:52 - 10,280 05:50
288 70 VIDAL yoann 00:58:22 SEM 95 00:24:39 00:24:39 - 10,280 05:50
289 80 HADDOUCHE Kader 00:58:25 V1M 88 00:24:42 00:23:32 - 10,271 05:50
290 245 GLATIGNY Emy 00:58:35 ESF 2 00:24:52 00:03:23 - 10,242 05:51
291 191 GUILLIZZONI valerie 00:58:47 V1F 19 00:25:04 00:17:17 - 10,207 05:53
292 57 POUILLY STEPHANIE 00:58:48 SEF 27 00:25:05 00:16:27 - 10,204 05:53
293 128 WILLIER Renaud 00:58:49 SEM 96 00:25:06 00:25:06 - 10,201 05:53
294 127 WALKOWIAK Laura 00:58:50 SEF 28 00:25:07 00:16:29 - 10,198 05:53
295 95 DEVIN Marc 00:58:53 V1M 89 00:25:10 00:24:00 - 10,190 05:53
296 72 LANNOY Bruno 00:58:57 V2M 36 00:25:14 00:20:33 - 10,178 05:54
297 104 LANNOY GUILLAUME 00:58:57 SEM 97 00:25:14 00:25:14 - 10,178 05:54
298 239 PATTE Frédérique 00:58:58 V2F 6 00:25:15 00:10:03 AS MARCK 10,175 05:54
299 495 LENGLET PAULINE 00:59:03 SEF 29 00:25:20 00:16:42 - 10,161 05:54
300 63 CHIROUTTE Stéphanie 00:59:11 V1F 20 00:25:28 00:17:41 - 10,138 05:55
301 33 PESEZ Nathalie 00:59:26 V1F 21 00:25:43 00:17:56 - 10,095 05:57
302 54 BERTHIER Aline 00:59:26 V1F 22 00:25:43 00:17:56 - 10,095 05:57
303 181 DOURDIN Isabelle 00:59:29 SEF 30 00:25:46 00:17:08 - 10,087 05:57
304 180 DOURDIN Lionel 00:59:29 V3M 12 00:25:46 00:17:07 - 10,087 05:57
305 140 MAILLARD christophe 00:59:50 V1M 90 00:26:07 00:24:57 - 10,028 05:59
306 460 BOUIN STEPHANIE 01:00:03 V1F 23 00:26:20 00:18:33 - 9,992 06:00
307 229 BARON Vanessa 01:00:10 SEF 31 00:26:27 00:17:49 - 9,972 06:01
308 48 BOCQUET CHRISTOPHE 01:00:23 V2M 37 00:26:40 00:21:59 - 9,937 06:02
309 85 MANTEZ Laetitia 01:00:33 V1F 24 00:26:50 00:19:03 - 9,909 06:03
310 289 RICOUART ANGELIQUE 01:00:51 V1F 25 00:27:08 00:19:21 - 9,860 06:05
311 290 COUSIN HONORINE 01:00:51 SEF 32 00:27:08 00:18:30 - 9,860 06:05
312 272 ANDRIEUX Maryvonne 01:00:55 V2F 7 00:27:12 00:12:00 - 9,850 06:05
313 99 PELLETIER Frédéric 01:00:55 V1M 91 00:27:12 00:26:02 - 9,850 06:05
314 36 TRONET Estelle 01:01:13 SEF 33 00:27:30 00:18:52 - 9,801 06:07
315 37 TRONET Sébastien 01:01:13 SEM 98 00:27:30 00:27:30 - 9,801 06:07
316 31 SAISON PASCAL 01:01:25 V2M 38 00:27:42 00:23:01 LES GAZELLES 9,769 06:08
317 236 DUBRULLE Anne Sophie 01:01:28 SEF 34 00:27:45 00:19:07 - 9,761 06:09
318 107 DELAVIER Thierry 01:03:03 SEM 99 00:29:20 00:29:20 - 9,516 06:18
319 3 HULOT Sophie 01:03:08 SEF 35 00:29:25 00:20:47 SO CALAIS 9,504 06:19
320 153 PAGNERRE Anne 01:03:13 V1F 26 00:29:30 00:21:43 DelPSP Team 9,491 06:19
321 49 FABRE FLORIANE 01:03:19 V2F 8 00:29:36 00:14:24 - 9,476 06:20
322 161 HOCHART Stig 01:03:33 V1M 92 00:29:50 00:28:40 - 9,441 06:21
323 160 HOCHART Marie 01:03:33 V1F 27 00:29:50 00:22:03 - 9,441 06:21
324 297 GOIDIN DOMINIQUE 01:04:21 V2M 39 00:30:38 00:25:57 - 9,324 06:26
325 29 GILLET Julien 01:04:21 SEM 100 00:30:38 00:30:38 - 9,324 06:26
326 476 CANIVET DAVID 01:04:39 SEM 101 00:30:56 00:30:56 - 9,281 06:28
327 145 BOCQUELET Camille 01:04:41 SEF 36 00:30:58 00:22:20 - 9,276 06:28
328 171 ADAYA-KOKOU delphine 01:04:41 SEF 37 00:30:58 00:22:20 - 9,276 06:28
329 45 HOUVENAGHEL VALERIE 01:04:45 V2F 9 00:31:02 00:15:50 - 9,266 06:29
330 231 DEPATY Anne 01:07:52 SEF 38 00:34:09 00:25:31 - 8,841 06:47
331 226 HAMY DANY 01:08:38 V2F 10 00:34:55 00:19:43 - 8,742 06:52
332 109 DENIS Norbert 01:11:35 V3M 13 00:37:52 00:29:13 - 8,382 07:10
333 232 PELLETIER Celine 01:13:18 V1F 28 00:39:35 00:31:48 - 8,186 07:20
334 108 DELAVIER Peggy 01:13:24 SEF 39 00:39:41 00:31:03 - 8,174 07:20
335 102 CARON Aurelie 01:13:25 SEF 40 00:39:42 00:31:04 - 8,173 07:20
336 131 RYCKEWAERT Ambre 01:14:17 SEF 41 00:40:34 00:31:56 - 8,077 07:26

 

Novembre 2017
Lun Mar Mer Jeu Ven Sam Dim
1
2
3
4
5
6
7
8
9
10
11
12
13
14
15
16
17
18
19
20
21
22
23
24
25
27
28
29
30